Time;durP1;ratioP1;P1;durP2;ratioP2;P2;SDS_P1;SDS_P2;PMS_P1;PMS_P2;Temp;Humidity;BMP_temperature;BMP_pressure;BME280_temperature;BME280_humidity;BME280_pressure;Samples;Min_cycle;Max_cycle;Signal;HPM_P1;HPM_P2
2022/03/19 00:00:28;;;;;;;;;;;17.00;47.80;;;;;;5025104;28;42947;-82
2022/03/19 00:02:54;;;;;;;;;;;16.90;47.30;;;;;;5025306;28;42957;-76
2022/03/19 00:05:19;;;;;;;;;;;17.00;47.90;;;;;;5009003;28;43000;-79
2022/03/19 00:07:45;;;;;;;;;;;17.00;48.00;;;;;;5004536;28;43833;-77
2022/03/19 00:10:11;;;;;;;;;;;17.00;48.00;;;;;;5004228;28;42987;-78
2022/03/19 00:12:39;;;;;;;;;;;17.00;48.00;;;;;;5019095;28;43388;-78
2022/03/19 00:15:05;;;;;;;;;;;17.00;48.00;;;;;;5029591;28;42987;-82
2022/03/19 00:17:31;;;;;;;;;;;17.00;48.00;;;;;;5024957;28;43678;-82
2022/03/19 00:19:56;;;;;;;;;;;17.00;48.10;;;;;;5025124;28;43131;-82
2022/03/19 00:22:22;;;;;;;;;;;17.00;48.20;;;;;;5025866;28;43007;-82
2022/03/19 00:24:47;;;;;;;;;;;17.00;48.30;;;;;;5014838;28;43894;-82
2022/03/19 00:27:13;;;;;;;;;;;17.00;48.50;;;;;;5004652;28;43051;-81
2022/03/19 00:29:38;;;;;;;;;;;17.00;48.40;;;;;;5004962;28;43131;-81
2022/03/19 00:32:04;;;;;;;;;;;17.00;48.40;;;;;;5004772;28;43087;-79
2022/03/19 00:34:31;;;;;;;;;;;17.00;48.40;;;;;;5005183;28;42977;-81
2022/03/19 00:36:57;;;;;;;;;;;17.00;48.40;;;;;;5004632;28;43027;-79
2022/03/19 00:39:22;;;;;;;;;;;17.00;48.50;;;;;;5004785;28;42960;-82
2022/03/19 00:41:48;;;;;;;;;;;16.90;48.00;;;;;;5004577;28;43240;-82
2022/03/19 00:44:13;;;;;;;;;;;17.00;48.70;;;;;;5004365;28;42993;-82
2022/03/19 00:46:39;;;;;;;;;;;17.00;48.70;;;;;;5023647;28;43690;-82
2022/03/19 00:49:04;;;;;;;;;;;17.00;48.80;;;;;;5024301;28;43196;-83
2022/03/19 00:51:32;;;;;;;;;;;17.00;48.40;;;;;;5023713;28;42859;-81
2022/03/19 00:53:57;;;;;;;;;;;17.00;49.30;;;;;;5024663;28;42942;-80
2022/03/19 00:56:23;;;;;;;;;;;17.00;49.40;;;;;;5007005;28;43676;-82
2022/03/19 00:58:48;;;;;;;;;;;17.00;49.70;;;;;;5004634;28;42996;-82
2022/03/19 01:01:14;;;;;;;;;;;17.00;50.00;;;;;;5004511;28;43404;-81
2022/03/19 01:03:39;;;;;;;;;;;17.00;50.10;;;;;;5003723;28;42980;-83
2022/03/19 01:06:05;;;;;;;;;;;17.00;49.90;;;;;;5017850;28;42977;-82
2022/03/19 01:08:30;;;;;;;;;;;17.00;50.60;;;;;;5024045;28;42912;-83
2022/03/19 01:10:56;;;;;;;;;;;17.00;50.70;;;;;;5022365;28;44127;-82
2022/03/19 01:13:21;;;;;;;;;;;17.00;50.40;;;;;;5037559;28;42987;-82
2022/03/19 01:15:47;;;;;;;;;;;17.00;51.10;;;;;;5033330;28;43002;-82
2022/03/19 01:18:12;;;;;;;;;;;17.00;51.20;;;;;;5023843;28;43020;-82
2022/03/19 01:20:38;;;;;;;;;;;17.10;51.40;;;;;;5024158;28;43351;-82
2022/03/19 01:23:04;;;;;;;;;;;17.00;51.50;;;;;;5024170;28;42967;-79
2022/03/19 01:25:29;;;;;;;;;;;17.00;51.70;;;;;;5016358;28;43619;-83
2022/03/19 01:27:55;;;;;;;;;;;17.10;52.00;;;;;;5003210;28;42987;-82
2022/03/19 01:30:22;;;;;;;;;;;17.00;52.10;;;;;;5003650;28;43095;-82
2022/03/19 01:32:49;;;;;;;;;;;17.10;52.30;;;;;;5003077;28;42911;-81
2022/03/19 01:35:16;;;;;;;;;;;17.00;52.60;;;;;;5003744;28;43156;-82
2022/03/19 01:37:41;;;;;;;;;;;17.10;52.70;;;;;;5003042;28;42906;-82
2022/03/19 01:40:08;;;;;;;;;;;17.10;52.90;;;;;;5003202;28;42849;-82
2022/03/19 01:42:35;;;;;;;;;;;17.10;52.90;;;;;;5013313;28;43102;-77
2022/03/19 01:45:03;;;;;;;;;;;17.10;53.10;;;;;;5022848;28;43182;-77
2022/03/19 01:47:29;;;;;;;;;;;17.10;53.10;;;;;;5022965;28;43060;-78
2022/03/19 01:49:55;;;;;;;;;;;17.10;53.20;;;;;;5023061;28;43530;-78
2022/03/19 01:52:21;;;;;;;;;;;17.10;53.30;;;;;;5015451;28;42973;-75
2022/03/19 01:54:48;;;;;;;;;;;17.10;52.30;;;;;;5004233;28;43692;-77
2022/03/19 01:57:14;;;;;;;;;;;17.10;52.70;;;;;;5003551;28;42977;-76
2022/03/19 01:59:40;;;;;;;;;;;17.10;53.00;;;;;;5003311;28;44004;-76
2022/03/19 02:02:07;;;;;;;;;;;17.10;53.30;;;;;;5003414;28;42854;-76
2022/03/19 02:04:34;;;;;;;;;;;17.10;53.20;;;;;;5003314;28;43929;-77
2022/03/19 02:06:59;;;;;;;;;;;17.10;53.30;;;;;;5003258;28;43004;-76
2022/03/19 02:09:25;;;;;;;;;;;17.10;53.30;;;;;;5020015;28;43082;-76
2022/03/19 02:11:51;;;;;;;;;;;17.10;53.40;;;;;;5023404;28;43053;-77
2022/03/19 02:14:17;;;;;;;;;;;17.10;52.80;;;;;;5041710;28;44932;-77
2022/03/19 02:16:43;;;;;;;;;;;17.10;53.30;;;;;;5043334;28;43142;-76
2022/03/19 02:19:10;;;;;;;;;;;17.10;53.40;;;;;;5008142;28;43936;-76
2022/03/19 02:21:39;;;;;;;;;;;17.10;53.40;;;;;;5008567;28;42986;-76
2022/03/19 02:27:06;;;;;;;;;;;17.10;53.50;;;;;;4999463;28;43183;-77
2022/03/19 02:29:32;;;;;;;;;;;17.10;53.50;;;;;;5002141;28;43178;-77
2022/03/19 02:31:58;;;;;;;;;;;17.10;53.60;;;;;;5018489;28;43435;-76
2022/03/19 02:34:24;;;;;;;;;;;17.20;53.60;;;;;;5023056;28;43192;-77
2022/03/19 02:36:50;;;;;;;;;;;17.10;53.60;;;;;;5022955;28;43020;-77
2022/03/19 02:39:16;;;;;;;;;;;17.10;53.60;;;;;;5022842;28;43175;-77
2022/03/19 02:41:43;;;;;;;;;;;17.20;53.70;;;;;;5022586;28;43065;-77
2022/03/19 02:44:09;;;;;;;;;;;17.10;53.60;;;;;;5021728;28;43637;-76
2022/03/19 02:46:45;;;;;;;;;;;17.20;53.80;;;;;;5021383;28;43017;-77
2022/03/19 02:49:10;;;;;;;;;;;17.20;53.30;;;;;;5011638;28;43975;-77
2022/03/19 02:51:38;;;;;;;;;;;17.20;53.80;;;;;;5002222;28;43035;-77
2022/03/19 02:54:06;;;;;;;;;;;17.20;53.90;;;;;;5002908;28;42941;-79
2022/03/19 02:56:36;;;;;;;;;;;17.10;53.90;;;;;;5009928;28;42763;-77
2022/03/19 02:59:17;;;;;;;;;;;17.10;53.90;;;;;;5015433;28;43030;-77
2022/03/19 03:01:43;;;;;;;;;;;17.20;54.10;;;;;;5002453;28;42971;-78
2022/03/19 03:04:09;;;;;;;;;;;17.20;54.10;;;;;;5002699;28;43161;-78
2022/03/19 03:06:35;;;;;;;;;;;17.20;54.20;;;;;;5002976;28;43157;-78
2022/03/19 03:09:01;;;;;;;;;;;17.10;54.20;;;;;;5003183;28;44487;-79
2022/03/19 03:11:27;;;;;;;;;;;17.20;54.20;;;;;;5003525;28;42889;-77
2022/03/19 03:13:52;;;;;;;;;;;17.20;54.40;;;;;;5003819;28;44099;-78
2022/03/19 03:16:18;;;;;;;;;;;17.20;54.30;;;;;;5019834;28;42928;-78
2022/03/19 03:18:44;;;;;;;;;;;17.20;54.30;;;;;;5044794;28;43047;-82
2022/03/19 03:21:09;;;;;;;;;;;17.10;54.30;;;;;;5006920;28;43042;-83
2022/03/19 03:23:35;;;;;;;;;;;17.20;54.30;;;;;;5022072;28;42942;-80
2022/03/19 03:26:00;;;;;;;;;;;17.10;54.30;;;;;;5025434;28;42961;-82
2022/03/19 03:28:27;;;;;;;;;;;17.10;54.30;;;;;;5024790;28;43728;-83
2022/03/19 03:30:53;;;;;;;;;;;17.20;54.40;;;;;;5018196;28;43905;-82
2022/03/19 03:33:18;;;;;;;;;;;17.20;54.30;;;;;;5024632;28;43534;-79
2022/03/19 03:35:47;;;;;;;;;;;17.10;53.70;;;;;;5025220;28;43237;-77
2022/03/19 03:38:12;;;;;;;;;;;17.10;53.70;;;;;;5024189;28;43993;-78
2022/03/19 03:40:38;;;;;;;;;;;17.20;54.30;;;;;;5024666;28;43352;-78
2022/03/19 03:43:04;;;;;;;;;;;17.20;54.30;;;;;;5060102;28;43048;-80
2022/03/19 03:45:30;;;;;;;;;;;17.20;54.40;;;;;;5014838;28;43224;-81
2022/03/19 03:47:56;;;;;;;;;;;17.20;54.30;;;;;;5010664;28;42987;-83
2022/03/19 03:50:22;;;;;;;;;;;17.20;54.50;;;;;;5024545;28;42932;-83
2022/03/19 03:52:47;;;;;;;;;;;17.20;54.50;;;;;;5023143;28;43280;-82
2022/03/19 03:55:13;;;;;;;;;;;17.20;54.60;;;;;;5016133;28;43047;-83
2022/03/19 03:57:39;;;;;;;;;;;17.20;54.60;;;;;;5006553;28;43553;-83
2022/03/19 04:00:05;;;;;;;;;;;17.20;54.60;;;;;;5023538;28;42994;-81
2022/03/19 04:02:31;;;;;;;;;;;17.20;54.60;;;;;;5023056;28;43609;-79
2022/03/19 04:04:57;;;;;;;;;;;17.20;54.60;;;;;;5024032;28;43646;-83
2022/03/19 04:07:23;;;;;;;;;;;20.00;56.00;;;;;;5024316;28;43948;-79
2022/03/19 04:09:49;;;;;;;;;;;17.20;54.60;;;;;;5023577;28;43003;-82
2022/03/19 04:12:15;;;;;;;;;;;17.20;54.40;;;;;;5020625;28;43180;-80
2022/03/19 04:14:40;;;;;;;;;;;17.20;54.60;;;;;;5022517;28;43237;-82
2022/03/19 04:17:06;;;;;;;;;;;17.20;54.60;;;;;;5005061;28;43675;-82
2022/03/19 04:19:32;;;;;;;;;;;17.20;54.50;;;;;;5006935;28;42965;-82
2022/03/19 04:21:57;;;;;;;;;;;17.50;54.20;;;;;;5022799;28;43559;-78
2022/03/19 04:24:23;;;;;;;;;;;17.20;54.50;;;;;;5023971;28;42876;-82
2022/03/19 04:26:48;;;;;;;;;;;17.20;54.60;;;;;;5022546;28;44208;-82
2022/03/19 04:29:14;;;;;;;;;;;17.20;54.60;;;;;;5031269;28;43030;-81
2022/03/19 04:31:39;;;;;;;;;;;17.20;54.50;;;;;;5023257;28;43299;-83
2022/03/19 04:34:05;;;;;;;;;;;17.20;54.10;;;;;;5041516;28;43070;-80
2022/03/19 04:36:32;;;;;;;;;;;17.20;54.20;;;;;;5016744;28;42995;-82
2022/03/19 04:39:02;;;;;;;;;;;17.20;54.80;;;;;;5004314;28;42982;-83
2022/03/19 04:41:28;;;;;;;;;;;17.20;54.80;;;;;;5004711;28;42813;-79
2022/03/19 04:43:54;;;;;;;;;;;17.20;54.80;;;;;;5004771;28;42958;-82
2022/03/19 04:46:19;;;;;;;;;;;17.20;54.90;;;;;;5019183;28;43342;-82
2022/03/19 04:48:45;;;;;;;;;;;17.20;55.00;;;;;;5024218;28;42917;-82
2022/03/19 04:51:12;;;;;;;;;;;17.20;55.00;;;;;;5023300;28;44593;-82
2022/03/19 04:53:38;;;;;;;;;;;17.20;55.00;;;;;;5023562;28;43679;-82
2022/03/19 04:56:04;;;;;;;;;;;17.20;54.90;;;;;;5022086;28;42977;-82
2022/03/19 04:58:30;;;;;;;;;;;17.20;55.10;;;;;;5024741;28;43472;-82
2022/03/19 05:00:56;;;;;;;;;;;17.20;55.00;;;;;;5024132;28;42991;-82
2022/03/19 05:03:21;;;;;;;;;;;17.20;55.00;;;;;;5023969;28;42976;-82
2022/03/19 05:05:47;;;;;;;;;;;17.20;55.10;;;;;;5023055;28;42943;-83
2022/03/19 05:08:12;;;;;;;;;;;17.20;55.00;;;;;;5005259;28;43220;-83
2022/03/19 05:13:22;;;;;;;;;;;17.20;55.10;;;;;;5004963;28;42849;-83
2022/03/19 05:15:47;;;;;;;;;;;17.30;55.20;;;;;;5004511;28;43618;-80
2022/03/19 05:18:13;;;;;;;;;;;17.20;55.20;;;;;;5005555;28;43128;-83
2022/03/19 05:20:38;;;;;;;;;;;17.30;55.20;;;;;;5004393;28;42995;-81
2022/03/19 05:23:05;;;;;;;;;;;17.20;55.20;;;;;;5018855;28;42870;-81
2022/03/19 05:25:30;;;;;;;;;;;17.30;55.20;;;;;;5008989;28;43713;-81
2022/03/19 05:27:56;;;;;;;;;;;17.50;54.80;;;;;;5003289;28;43145;-81
2022/03/19 05:30:22;;;;;;;;;;;17.20;54.70;;;;;;5003524;28;45410;-85
2022/03/19 05:32:48;;;;;;;;;;;17.20;54.50;;;;;;5004164;28;43005;-80
2022/03/19 05:35:14;;;;;;;;;;;17.20;55.00;;;;;;5004986;28;43092;-82
2022/03/19 05:37:40;;;;;;;;;;;17.30;55.10;;;;;;5009461;28;43104;-82
2022/03/19 05:40:06;;;;;;;;;;;17.20;55.10;;;;;;5008760;28;42956;-81
2022/03/19 05:42:32;;;;;;;;;;;17.30;55.10;;;;;;5004677;28;42984;-80
2022/03/19 05:44:58;;;;;;;;;;;17.20;55.00;;;;;;5011163;28;43303;-80
2022/03/19 05:47:23;;;;;;;;;;;17.30;55.10;;;;;;5008088;28;42953;-80
2022/03/19 05:49:49;;;;;;;;;;;17.30;55.00;;;;;;5023754;28;44749;-79
2022/03/19 05:52:15;;;;;;;;;;;17.30;55.00;;;;;;5003329;28;43228;-79
2022/03/19 05:54:42;;;;;;;;;;;17.30;55.00;;;;;;5009785;28;43709;-80
2022/03/19 05:57:08;;;;;;;;;;;17.30;55.00;;;;;;5006150;28;43020;-80
2022/03/19 05:59:33;;;;;;;;;;;17.30;54.90;;;;;;5016871;28;43003;-81
2022/03/19 06:01:59;;;;;;;;;;;17.20;54.90;;;;;;5012222;28;43197;-75
2022/03/19 06:04:25;;;;;;;;;;;17.30;54.90;;;;;;5003312;28;43479;-78
2022/03/19 06:06:50;;;;;;;;;;;17.30;55.00;;;;;;5005465;28;43224;-79
2022/03/19 06:09:16;;;;;;;;;;;17.20;54.90;;;;;;5003979;28;43647;-80
2022/03/19 06:11:43;;;;;;;;;;;17.30;54.20;;;;;;5001938;28;42973;-78
2022/03/19 06:14:09;;;;;;;;;;;17.20;52.30;;;;;;5003755;28;43401;-79
2022/03/19 06:16:34;;;;;;;;;;;17.30;54.60;;;;;;5003921;28;43342;-78
2022/03/19 06:19:00;;;;;;;;;;;17.20;53.30;;;;;;5003648;28;43557;-79
2022/03/19 06:21:25;;;;;;;;;;;17.20;53.20;;;;;;5002458;28;42891;-79
2022/03/19 06:23:51;;;;;;;;;;;17.30;54.60;;;;;;5002975;28;44310;-78
2022/03/19 06:26:20;;;;;;;;;;;17.30;54.60;;;;;;5021138;28;43171;-79
2022/03/19 06:28:46;;;;;;;;;;;17.20;54.40;;;;;;5014186;28;43439;-79
2022/03/19 06:31:11;;;;;;;;;;;17.30;54.50;;;;;;5015168;28;43037;-78
2022/03/19 06:33:41;;;;;;;;;;;17.20;54.50;;;;;;5022816;28;42989;-80
2022/03/19 06:38:51;;;;;;;;;;;18.00;53.60;;;;;;5017350;28;43178;-79
2022/03/19 06:41:16;;;;;;;;;;;17.20;53.80;;;;;;5002326;28;43016;-79
2022/03/19 06:43:43;;;;;;;;;;;17.20;51.90;;;;;;5003333;28;43498;-79
2022/03/19 06:46:09;;;;;;;;;;;17.20;54.60;;;;;;5002534;28;43028;-78
2022/03/19 06:48:35;;;;;;;;;;;17.20;53.50;;;;;;5004106;28;42959;-77
2022/03/19 06:51:00;;;;;;;;;;;17.20;54.80;;;;;;5007168;28;43045;-79
2022/03/19 06:53:26;;;;;;;;;;;17.30;54.70;;;;;;5006979;28;43555;-80
2022/03/19 06:55:52;;;;;;;;;;;17.30;55.00;;;;;;5006171;28;42840;-80
2022/03/19 06:58:19;;;;;;;;;;;17.30;55.00;;;;;;5006155;28;42917;-80
2022/03/19 07:00:44;;;;;;;;;;;17.30;54.90;;;;;;5007714;28;43081;-79
2022/03/19 07:03:10;;;;;;;;;;;17.30;54.90;;;;;;5015752;28;42864;-80
2022/03/19 07:05:35;;;;;;;;;;;17.30;54.90;;;;;;5026809;28;42912;-80
2022/03/19 07:08:02;;;;;;;;;;;17.30;55.00;;;;;;5026587;28;43810;-80
2022/03/19 07:10:27;;;;;;;;;;;17.30;55.00;;;;;;5018090;28;43007;-81
2022/03/19 07:12:53;;;;;;;;;;;17.30;51.50;;;;;;5005626;28;42977;-81
2022/03/19 07:15:21;;;;;;;;;;;17.20;52.00;;;;;;5008279;28;43100;-80
2022/03/19 07:17:48;;;;;;;;;;;17.20;50.80;;;;;;5025594;28;42953;-83
2022/03/19 07:20:14;;;;;;;;;;;17.20;52.10;;;;;;5024425;28;42841;-82
2022/03/19 07:22:58;;;;;;;;;;;17.20;54.70;;;;;;5008880;28;42939;-82
2022/03/19 07:25:24;;;;;;;;;;;17.20;53.30;;;;;;5008367;28;44082;-80
2022/03/19 07:27:51;;;;;;;;;;;17.20;54.60;;;;;;5021991;28;43060;-79
2022/03/19 07:30:16;;;;;;;;;;;17.30;55.20;;;;;;5025951;28;43509;-79
2022/03/19 07:32:42;;;;;;;;;;;17.20;54.70;;;;;;5022035;28;43127;-79
2022/03/19 07:35:08;;;;;;;;;;;17.30;55.30;;;;;;5022077;28;44387;-79
2022/03/19 07:37:34;;;;;;;;;;;17.30;55.40;;;;;;5039489;28;43390;-79
2022/03/19 07:39:59;;;;;;;;;;;17.30;55.40;;;;;;5022858;28;43080;-79
2022/03/19 07:42:25;;;;;;;;;;;17.30;55.40;;;;;;5012744;28;43954;-79
2022/03/19 07:44:51;;;;;;;;;;;17.30;55.60;;;;;;5019915;28;43055;-78
2022/03/19 07:47:17;;;;;;;;;;;16.30;36.60;;;;;;5021990;28;44088;-79
2022/03/19 07:49:42;;;;;;;;;;;16.10;49.10;;;;;;5024379;28;42985;-79
2022/03/19 07:52:08;;;;;;;;;;;16.50;53.00;;;;;;5024396;28;44448;-78
2022/03/19 07:54:37;;;;;;;;;;;16.80;54.30;;;;;;5025779;28;43025;-79
2022/03/19 07:57:03;;;;;;;;;;;16.90;53.80;;;;;;5024997;28;43634;-78
2022/03/19 07:59:29;;;;;;;;;;;17.00;54.10;;;;;;5009264;28;42963;-78
2022/03/19 08:01:54;;;;;;;;;;;17.10;53.40;;;;;;5005356;28;42964;-78
2022/03/19 08:04:20;;;;;;;;;;;17.10;53.60;;;;;;5022542;28;43282;-77
2022/03/19 08:06:46;;;;;;;;;;;17.10;53.00;;;;;;5025609;28;43293;-78
2022/03/19 08:09:12;;;;;;;;;;;17.20;53.50;;;;;;5012328;28;42850;-78
2022/03/19 08:11:39;;;;;;;;;;;17.20;53.00;;;;;;5006626;28;42866;-78
2022/03/19 08:14:05;;;;;;;;;;;17.20;53.70;;;;;;5006227;28;42997;-77
2022/03/19 08:16:30;;;;;;;;;;;17.20;53.60;;;;;;5017811;28;43061;-78
2022/03/19 08:18:56;;;;;;;;;;;17.20;53.70;;;;;;5023843;28;43288;-77
2022/03/19 08:21:21;;;;;;;;;;;17.30;54.10;;;;;;5021693;28;43499;-77
2022/03/19 08:23:47;;;;;;;;;;;17.30;52.00;;;;;;5025238;28;43140;-77
2022/03/19 08:26:13;;;;;;;;;;;16.70;37.70;;;;;;5025662;28;42966;-78
2022/03/19 08:28:39;;;;;;;;;;;16.90;44.10;;;;;;5025009;28;42879;-78
2022/03/19 08:31:04;;;;;;;;;;;17.00;46.70;;;;;;5025129;28;43671;-77
2022/03/19 08:33:30;;;;;;;;;;;17.10;46.70;;;;;;5025674;28;43033;-79
2022/03/19 08:35:56;;;;;;;;;;;17.10;46.60;;;;;;5032620;28;43936;-78
2022/03/19 08:41:05;;;;;;;;;;;17.20;49.70;;;;;;5016489;28;43262;-78
2022/03/19 08:43:31;;;;;;;;;;;19.10;51.90;;;;;;5021928;28;43255;-75
2022/03/19 08:45:56;;;;;;;;;;;17.10;35.30;;;;;;5041906;28;43434;-83
2022/03/19 08:48:22;;;;;;;;;;;16.70;35.20;;;;;;5024225;28;42964;-80
2022/03/19 08:50:47;;;;;;;;;;;16.80;37.30;;;;;;5025408;28;43447;-79
2022/03/19 08:53:13;;;;;;;;;;;16.80;37.00;;;;;;5024939;28;42881;-78
2022/03/19 08:55:39;;;;;;;;;;;16.70;37.10;;;;;;5024606;28;44031;-79
2022/03/19 08:58:04;;;;;;;;;;;16.70;36.90;;;;;;5024979;28;43357;-79
2022/03/19 09:00:30;;;;;;;;;;;16.60;35.90;;;;;;5025347;28;43467;-80
2022/03/19 09:02:56;;;;;;;;;;;16.50;35.30;;;;;;5024881;28;42861;-79
2022/03/19 09:05:22;;;;;;;;;;;16.50;34.70;;;;;;5025382;28;43731;-80
2022/03/19 09:07:47;;;;;;;;;;;16.50;34.90;;;;;;5025460;28;42928;-79
2022/03/19 09:10:13;;;;;;;;;;;16.50;34.50;;;;;;5024722;28;43149;-79
2022/03/19 09:12:39;;;;;;;;;;;16.60;35.00;;;;;;5023952;28;43011;-79
2022/03/19 09:15:06;;;;;;;;;;;16.50;34.80;;;;;;5024930;28;43275;-79
2022/03/19 09:17:31;;;;;;;;;;;16.50;35.50;;;;;;5024881;28;43157;-74
2022/03/19 09:19:57;;;;;;;;;;;16.50;34.90;;;;;;5024801;28;42966;-80
2022/03/19 09:22:22;;;;;;;;;;;16.60;34.30;;;;;;5021393;28;43152;-78
2022/03/19 09:24:48;;;;;;;;;;;16.70;35.50;;;;;;5023355;28;43941;-74
2022/03/19 09:27:14;;;;;;;;;;;16.60;34.90;;;;;;5024867;28;43920;-75
2022/03/19 09:29:41;;;;;;;;;;;16.50;34.10;;;;;;5041103;28;42990;-75
2022/03/19 09:32:07;;;;;;;;;;;16.50;34.70;;;;;;5031251;28;43198;-76
2022/03/19 09:34:33;;;;;;;;;;;16.50;34.30;;;;;;5027887;28;43279;-73
2022/03/19 09:36:58;;;;;;;;;;;16.50;34.60;;;;;;5028582;28;42975;-73
2022/03/19 09:39:24;;;;;;;;;;;16.50;34.40;;;;;;5034918;28;43205;-75
2022/03/19 09:41:50;;;;;;;;;;;16.50;34.40;;;;;;5052135;28;43041;-76
2022/03/19 09:44:17;;;;;;;;;;;16.50;33.90;;;;;;5042908;28;42896;-76
2022/03/19 09:46:43;;;;;;;;;;;16.50;34.40;;;;;;5031425;28;42864;-76
2022/03/19 09:49:10;;;;;;;;;;;16.40;34.00;;;;;;5037757;28;43000;-76
2022/03/19 09:51:38;;;;;;;;;;;16.40;34.10;;;;;;5024336;28;43731;-76
2022/03/19 09:54:03;;;;;;;;;;;16.40;33.70;;;;;;5022711;28;43425;-76
2022/03/19 09:56:30;;;;;;;;;;;16.40;33.40;;;;;;5027533;28;43026;-76
2022/03/19 09:58:55;;;;;;;;;;;16.50;33.80;;;;;;5035277;28;44060;-76
2022/03/19 10:01:21;;;;;;;;;;;16.50;33.90;;;;;;5029445;28;43010;-75
2022/03/19 10:03:47;;;;;;;;;;;16.50;34.20;;;;;;5036372;28;43216;-77
2022/03/19 10:08:58;;;;;;;;;;;16.40;33.90;;;;;;5033326;28;42980;-76
2022/03/19 10:11:28;;;;;;;;;;;16.50;34.00;;;;;;5026325;28;43106;-76
2022/03/19 10:13:54;;;;;;;;;;;16.60;34.50;;;;;;5032752;28;42976;-76
2022/03/19 10:16:22;;;;;;;;;;;16.50;34.20;;;;;;5024798;28;42938;-76
2022/03/19 10:18:57;;;;;;;;;;;16.50;33.90;;;;;;5028520;28;43004;-76
2022/03/19 10:21:24;;;;;;;;;;;16.50;33.90;;;;;;5022599;28;42962;-76
2022/03/19 10:23:49;;;;;;;;;;;16.50;33.80;;;;;;5041493;28;43680;-76
2022/03/19 10:26:27;;;;;;;;;;;16.50;34.00;;;;;;5035026;28;42974;-77
2022/03/19 10:29:00;;;;;;;;;;;16.60;34.10;;;;;;5036118;28;43758;-76
2022/03/19 10:31:35;;;;;;;;;;;16.50;34.10;;;;;;5024290;28;43451;-77
2022/03/19 10:34:01;;;;;;;;;;;16.50;33.90;;;;;;5033379;28;43554;-76
2022/03/19 10:36:35;;;;;;;;;;;16.40;33.80;;;;;;5033662;28;43025;-76
2022/03/19 10:39:04;;;;;;;;;;;16.50;34.00;;;;;;5038347;28;43650;-76
2022/03/19 10:41:33;;;;;;;;;;;16.40;33.90;;;;;;5026835;28;43055;-75
2022/03/19 10:44:08;;;;;;;;;;;16.50;33.70;;;;;;5043289;28;42840;-75
2022/03/19 10:46:34;;;;;;;;;;;16.40;33.40;;;;;;5037902;28;42845;-75
2022/03/19 10:49:00;;;;;;;;;;;16.40;33.60;;;;;;5016165;28;43810;-75
2022/03/19 10:51:29;;;;;;;;;;;16.40;33.60;;;;;;5037757;28;42887;-75
2022/03/19 10:53:55;;;;;;;;;;;16.50;33.90;;;;;;5030502;28;43462;-76
2022/03/19 10:56:21;;;;;;;;;;;16.40;33.60;;;;;;5034291;28;42933;-75
2022/03/19 10:58:47;;;;;;;;;;;16.50;34.00;;;;;;5035102;28;43362;-75
2022/03/19 11:01:14;;;;;;;;;;;16.50;33.50;;;;;;5025899;28;43560;-75
2022/03/19 11:03:40;;;;;;;;;;;16.50;33.30;;;;;;5040816;28;44392;-75
2022/03/19 11:06:07;;;;;;;;;;;16.60;33.40;;;;;;5036198;28;42981;-75
2022/03/19 11:08:37;;;;;;;;;;;16.50;33.40;;;;;;5032970;28;43268;-75
2022/03/19 11:11:03;;;;;;;;;;;16.40;33.10;;;;;;5039606;28;42908;-75
2022/03/19 11:13:30;;;;;;;;;;;16.40;32.90;;;;;;5030518;28;44249;-76
2022/03/19 11:15:57;;;;;;;;;;;16.90;33.70;;;;;;5014844;28;42955;-73
2022/03/19 11:18:23;;;;;;;;;;;16.50;33.80;;;;;;5011038;28;43055;-73
2022/03/19 11:20:50;;;;;;;;;;;16.50;33.50;;;;;;5015884;28;43100;-74
2022/03/19 11:23:18;;;;;;;;;;;16.50;33.40;;;;;;5035688;28;43552;-76
2022/03/19 11:25:45;;;;;;;;;;;16.60;33.10;;;;;;5012732;28;42870;-76
2022/03/19 11:28:11;;;;;;;;;;;16.60;33.60;;;;;;5023609;28;43075;-75
2022/03/19 11:30:40;;;;;;;;;;;16.50;33.30;;;;;;5034642;28;43049;-74
2022/03/19 11:33:15;;;;;;;;;;;16.40;32.60;;;;;;5040537;28;43688;-76
2022/03/19 11:35:42;;;;;;;;;;;16.40;32.60;;;;;;5045508;28;42860;-76
2022/03/19 11:38:11;;;;;;;;;;;16.50;33.20;;;;;;5031831;28;42865;-77
2022/03/19 11:40:37;;;;;;;;;;;16.50;33.30;;;;;;5018152;28;43858;-73
2022/03/19 11:43:07;;;;;;;;;;;16.50;32.90;;;;;;5043416;28;43949;-73
2022/03/19 11:45:39;;;;;;;;;;;16.60;33.40;;;;;;5045999;28;42879;-76
2022/03/19 11:48:24;;;;;;;;;;;16.50;33.60;;;;;;5031450;28;43405;-77
2022/03/19 11:50:51;;;;;;;;;;;16.40;33.10;;;;;;5012110;28;42988;-74
2022/03/19 11:53:17;;;;;;;;;;;16.40;32.70;;;;;;5029001;28;43035;-74
2022/03/19 11:55:43;;;;;;;;;;;16.30;32.10;;;;;;5045305;28;43014;-74
2022/03/19 11:58:09;;;;;;;;;;;16.50;33.00;;;;;;5030867;28;43461;-74
2022/03/19 12:00:36;;;;;;;;;;;16.50;33.40;;;;;;5018373;28;43126;-75
2022/03/19 12:03:02;;;;;;;;;;;16.30;32.50;;;;;;5023876;28;43401;-76
2022/03/19 12:05:28;;;;;;;;;;;16.30;32.60;;;;;;5030088;28;43201;-77
2022/03/19 12:08:03;;;;;;;;;;;16.20;32.20;;;;;;5027144;28;43599;-77
2022/03/19 12:10:36;;;;;;;;;;;16.10;32.20;;;;;;5030517;28;44023;-78
2022/03/19 12:13:03;;;;;;;;;;;16.10;31.60;;;;;;5034074;28;43641;-79
2022/03/19 12:15:32;;;;;;;;;;;16.20;32.60;;;;;;5042237;28;43281;-76
2022/03/19 12:18:16;;;;;;;;;;;16.00;32.40;;;;;;5030688;28;43898;-77
2022/03/19 12:20:42;;;;;;;;;;;16.00;32.60;;;;;;5028898;28;43215;-80
2022/03/19 12:23:07;;;;;;;;;;;16.10;34.10;;;;;;5029769;28;42940;-78
2022/03/19 12:25:34;;;;;;;;;;;16.30;35.80;;;;;;5027680;28;43361;-76
2022/03/19 12:27:59;;;;;;;;;;;16.40;37.20;;;;;;5027096;28;43433;-85
2022/03/19 12:30:25;;;;;;;;;;;16.50;38.40;;;;;;5032189;28;43352;-82
2022/03/19 12:32:55;;;;;;;;;;;16.50;40.60;;;;;;5040886;28;43020;-80
2022/03/19 12:35:21;;;;;;;;;;;16.40;38.20;;;;;;5034820;28;42963;-82
2022/03/19 12:37:51;;;;;;;;;;;16.40;37.30;;;;;;5029606;28;43036;-85
2022/03/19 12:40:18;;;;;;;;;;;16.40;37.50;;;;;;5027039;28;42986;-76
2022/03/19 12:42:49;;;;;;;;;;;16.60;36.70;;;;;;5032804;28;43456;-83
2022/03/19 12:45:14;;;;;;;;;;;16.40;36.00;;;;;;5036104;28;43176;-83
2022/03/19 12:47:40;;;;;;;;;;;16.40;36.40;;;;;;5033613;28;43243;-81
2022/03/19 12:50:06;;;;;;;;;;;16.40;35.40;;;;;;5031157;28;43136;-83
2022/03/19 12:52:33;;;;;;;;;;;16.40;35.50;;;;;;5041181;28;42942;-83
2022/03/19 12:55:00;;;;;;;;;;;16.40;35.30;;;;;;5041841;28;43467;-84
2022/03/19 12:57:31;;;;;;;;;;;16.40;34.10;;;;;;5034465;28;43504;-83
2022/03/19 12:59:57;;;;;;;;;;;16.40;34.70;;;;;;5034887;28;43233;-75
2022/03/19 13:02:24;;;;;;;;;;;16.40;34.40;;;;;;5032508;28;43206;-78
2022/03/19 13:04:50;;;;;;;;;;;16.40;34.70;;;;;;5039997;28;42954;-77
2022/03/19 13:07:17;;;;;;;;;;;16.50;35.80;;;;;;5033277;28;43602;-77
2022/03/19 13:09:43;;;;;;;;;;;16.40;34.40;;;;;;5032420;28;42988;-74
2022/03/19 13:12:11;;;;;;;;;;;16.40;33.70;;;;;;5023225;28;42995;-73
2022/03/19 13:14:37;;;;;;;;;;;16.40;34.10;;;;;;5031883;28;42910;-74
2022/03/19 13:17:02;;;;;;;;;;;16.40;33.50;;;;;;5028819;28;43828;-78
2022/03/19 13:19:29;;;;;;;;;;;16.40;34.20;;;;;;5026532;28;43138;-78
2022/03/19 13:21:56;;;;;;;;;;;16.40;34.40;;;;;;5021162;28;42929;-78
2022/03/19 13:24:23;;;;;;;;;;;16.40;33.60;;;;;;5031414;28;43015;-75
2022/03/19 13:26:48;;;;;;;;;;;16.40;33.10;;;;;;5018150;28;42940;-73
2022/03/19 13:29:16;;;;;;;;;;;16.30;32.20;;;;;;5009099;28;43112;-74
2022/03/19 13:31:47;;;;;;;;;;;16.20;31.90;;;;;;5006755;28;43493;-77
2022/03/19 13:34:19;;;;;;;;;;;16.20;31.90;;;;;;5012845;28;44248;-77
2022/03/19 13:36:50;;;;;;;;;;;16.20;31.70;;;;;;5015806;28;43954;-81
2022/03/19 13:39:35;;;;;;;;;;;16.30;33.20;;;;;;5002111;28;43081;-79
2022/03/19 13:42:03;;;;;;;;;;;16.30;33.60;;;;;;5013836;28;43123;-79
2022/03/19 13:44:36;;;;;;;;;;;16.40;34.20;;;;;;5024069;28;43034;-83
2022/03/19 13:47:02;;;;;;;;;;;16.50;34.70;;;;;;5023656;28;43046;-76
2022/03/19 13:49:28;;;;;;;;;;;16.50;34.40;;;;;;5040927;28;44104;-79
2022/03/19 13:51:53;;;;;;;;;;;16.50;33.50;;;;;;5051754;28;43772;-84
2022/03/19 13:54:19;;;;;;;;;;;16.50;32.60;;;;;;5039539;28;42907;-85
2022/03/19 13:56:49;;;;;;;;;;;16.50;32.60;;;;;;5022169;28;44453;-84
2022/03/19 13:59:23;;;;;;;;;;;16.50;32.60;;;;;;5038784;28;43050;-85
2022/03/19 14:01:48;;;;;;;;;;;16.50;32.60;;;;;;5045154;28;43297;-83
2022/03/19 14:04:17;;;;;;;;;;;16.50;32.40;;;;;;5044460;28;43261;-82
2022/03/19 14:06:43;;;;;;;;;;;16.50;31.60;;;;;;5044323;28;43479;-83
2022/03/19 14:09:09;;;;;;;;;;;16.40;30.90;;;;;;5043306;28;42914;-83
2022/03/19 14:11:38;;;;;;;;;;;16.50;31.50;;;;;;5030864;28;43499;-83
2022/03/19 14:14:04;;;;;;;;;;;16.50;31.60;;;;;;5023934;28;43074;-83
2022/03/19 14:16:30;;;;;;;;;;;15.80;31.10;;;;;;5024453;28;43811;-81
2022/03/19 14:18:57;;;;;;;;;;;16.50;31.80;;;;;;5034012;28;42948;-83
2022/03/19 14:21:22;;;;;;;;;;;16.40;30.70;;;;;;5045030;28;43964;-84
2022/03/19 14:23:48;;;;;;;;;;;16.50;31.40;;;;;;5044436;28;43231;-84
2022/03/19 14:26:15;;;;;;;;;;;16.60;31.40;;;;;;5043750;28;42900;-84